Time;durP1;ratioP1;P1;durP2;ratioP2;P2;SDS_P1;SDS_P2;PMS_P1;PMS_P2;Temp;Humidity;BMP_temperature;BMP_pressure;BME280_temperature;BME280_humidity;BME280_pressure;Samples;Min_cycle;Max_cycle;Signal;HPM_P1;HPM_P2
2022/06/30 00:01:46;;;;;;;9.03;6.70;;;26.80;54.60;;;;;;5051676;28;20468;-90
2022/06/30 00:04:13;;;;;;;8.53;7.60;;;26.80;54.70;;;;;;5065839;28;20465;-90
2022/06/30 00:06:40;;;;;;;6.87;5.90;;;26.80;54.60;;;;;;5057988;28;20445;-90
2022/06/30 00:09:09;;;;;;;7.83;7.03;;;26.80;54.70;;;;;;5056534;28;20453;-90
2022/06/30 00:11:35;;;;;;;7.23;6.53;;;26.80;55.30;;;;;;5038656;28;20445;-89
2022/06/30 00:14:03;;;;;;;6.90;6.30;;;26.80;54.80;;;;;;5052416;28;20475;-89
2022/06/30 00:16:30;;;;;;;12.80;7.00;;;26.80;55.00;;;;;;5062983;28;20451;-90
2022/06/30 00:18:57;;;;;;;13.00;7.50;;;26.80;55.00;;;;;;5054477;28;20456;-90
2022/06/30 00:21:25;;;;;;;7.03;6.30;;;26.80;55.50;;;;;;5045632;28;20453;-90
2022/06/30 00:23:51;;;;;;;7.07;6.37;;;26.70;55.70;;;;;;5039204;28;20483;-90
2022/06/30 00:26:20;;;;;;;8.33;7.50;;;26.70;56.00;;;;;;5041486;28;20434;-89
2022/06/30 00:28:47;;;;;;;8.50;7.50;;;26.70;55.90;;;;;;5056011;28;20444;-90
2022/06/30 00:31:14;;;;;;;8.37;7.23;;;26.60;56.20;;;;;;5053418;28;20803;-89
2022/06/30 00:33:41;;;;;;;7.57;6.87;;;26.60;56.20;;;;;;5071342;28;20556;-90
2022/06/30 00:36:08;;;;;;;8.30;7.17;;;26.60;55.90;;;;;;5053280;28;20971;-90
2022/06/30 00:38:36;;;;;;;10.27;7.30;;;26.60;55.90;;;;;;5041324;28;20460;-90
2022/06/30 00:41:03;;;;;;;9.83;7.17;;;26.60;55.80;;;;;;5049080;28;20543;-89
2022/06/30 00:43:31;;;;;;;11.43;7.83;;;26.60;56.00;;;;;;5061394;28;20625;-90
2022/06/30 00:45:58;;;;;;;10.37;7.10;;;26.50;55.90;;;;;;5050285;28;20437;-91
2022/06/30 00:48:25;;;;;;;9.17;7.00;;;26.50;55.70;;;;;;5068473;28;20463;-90
2022/06/30 00:50:52;;;;;;;7.80;7.10;;;26.50;55.90;;;;;;5054905;28;20454;-90
2022/06/30 00:53:21;;;;;;;8.40;6.90;;;26.50;55.70;;;;;;5059369;28;21182;-89
2022/06/30 00:55:49;;;;;;;7.40;6.70;;;26.40;55.60;;;;;;5073721;28;20562;-90
2022/06/30 00:58:18;;;;;;;10.27;7.97;;;26.40;56.20;;;;;;5059957;28;20469;-90
2022/06/30 01:00:49;;;;;;;8.10;6.50;;;26.30;55.90;;;;;;5057355;28;20445;-90
2022/06/30 01:03:17;;;;;;;11.17;6.80;;;26.30;55.80;;;;;;5043575;28;20484;-89
2022/06/30 01:05:46;;;;;;;8.37;7.50;;;26.30;55.80;;;;;;5057946;28;20999;-91
2022/06/30 01:08:16;;;;;;;7.70;6.90;;;26.30;55.70;;;;;;5058198;28;20467;-90
2022/06/30 01:13:27;;;;;;;14.60;7.53;;;26.30;55.80;;;;;;5042930;28;20815;-90
2022/06/30 01:15:56;;;;;;;7.50;6.80;;;26.20;56.10;;;;;;5071071;28;20472;-90
2022/06/30 01:18:22;;;;;;;10.57;7.77;;;26.00;56.30;;;;;;5061656;28;20456;-90
2022/06/30 01:20:50;;;;;;;7.87;7.17;;;26.00;56.30;;;;;;5033551;28;20457;-89
2022/06/30 01:23:18;;;;;;;10.50;8.00;;;26.00;55.40;;;;;;5064096;28;21243;-91
2022/06/30 01:25:46;;;;;;;7.90;6.80;;;25.90;56.40;;;;;;5057781;28;20447;-91
2022/06/30 01:28:13;;;;;;;8.23;7.20;;;26.00;55.60;;;;;;5067369;28;20424;-90
2022/06/30 01:30:41;;;;;;;9.40;8.00;;;26.00;55.60;;;;;;5080077;28;20849;-90
2022/06/30 01:33:08;;;;;;;10.50;7.73;;;26.00;55.70;;;;;;5060386;28;20570;-90
2022/06/30 01:35:35;;;;;;;11.90;7.90;;;26.00;55.60;;;;;;5062198;28;20461;-90
2022/06/30 01:38:03;;;;;;;10.13;7.87;;;25.90;56.00;;;;;;5045467;28;20508;-89
2022/06/30 01:40:33;;;;;;;9.30;7.07;;;25.80;55.50;;;;;;5059821;28;20440;-90
2022/06/30 01:43:01;;;;;;;11.47;8.07;;;25.80;56.10;;;;;;5081866;28;20823;-91
2022/06/30 01:45:28;;;;;;;8.70;7.80;;;25.80;55.70;;;;;;5061411;28;20448;-91
2022/06/30 01:47:56;;;;;;;10.33;8.10;;;25.80;55.80;;;;;;5064197;28;20449;-91
2022/06/30 01:50:25;;;;;;;8.97;8.03;;;25.80;55.70;;;;;;5032629;28;20445;-91
2022/06/30 01:52:52;;;;;;;9.60;7.30;;;25.80;56.20;;;;;;5046284;28;20864;-91
2022/06/30 01:55:20;;;;;;;8.33;7.53;;;25.80;56.30;;;;;;5062529;28;20464;-91
2022/06/30 01:57:48;;;;;;;9.83;7.47;;;25.70;56.00;;;;;;5053328;28;20506;-90
2022/06/30 02:00:17;;;;;;;12.67;7.73;;;25.80;56.30;;;;;;5058473;28;20449;-91
2022/06/30 02:02:45;;;;;;;10.60;7.70;;;25.70;56.40;;;;;;5042263;28;20599;-91
2022/06/30 02:05:13;;;;;;;15.70;8.20;;;25.70;56.30;;;;;;5064594;28;20445;-90
2022/06/30 02:07:41;;;;;;;8.93;7.00;;;25.70;56.70;;;;;;5042031;28;20449;-91
2022/06/30 02:10:10;;;;;;;9.37;6.80;;;25.70;56.70;;;;;;5060405;28;20637;-90
2022/06/30 02:12:46;;;;;;;9.23;7.43;;;25.70;56.60;;;;;;5050273;28;20490;-90
2022/06/30 02:15:19;;;;;;;8.20;7.20;;;25.70;56.50;;;;;;5073478;28;20552;-90
2022/06/30 02:17:47;;;;;;;8.23;7.27;;;25.60;56.00;;;;;;5044784;28;20433;-91
2022/06/30 02:20:18;;;;;;;9.03;7.60;;;25.60;56.10;;;;;;5045335;28;20445;-91
2022/06/30 02:22:45;;;;;;;7.63;6.80;;;25.60;56.00;;;;;;5061812;28;20511;-89
2022/06/30 02:25:12;;;;;;;8.73;7.20;;;25.60;55.80;;;;;;5041833;28;20495;-90
2022/06/30 02:27:39;;;;;;;11.73;7.80;;;25.50;55.70;;;;;;5041133;28;21098;-89
2022/06/30 02:30:07;;;;;;;11.13;7.80;;;25.50;55.80;;;;;;5059116;28;20544;-91
2022/06/30 02:32:35;;;;;;;10.93;7.43;;;25.40;56.00;;;;;;5058981;28;20595;-90
2022/06/30 02:35:03;;;;;;;9.37;7.60;;;25.40;56.20;;;;;;5046003;28;21049;-90
2022/06/30 02:37:30;;;;;;;8.13;7.33;;;25.40;56.30;;;;;;5028720;28;20446;-90
2022/06/30 02:39:57;;;;;;;9.90;6.70;;;25.40;56.40;;;;;;5045943;28;20541;-89
2022/06/30 02:42:24;;;;;;;10.10;7.50;;;25.40;56.10;;;;;;5059544;28;20963;-92
2022/06/30 02:44:51;;;;;;;8.90;7.90;;;25.40;55.90;;;;;;5064525;28;20487;-90
2022/06/30 02:47:18;;;;;;;9.00;7.90;;;25.40;55.80;;;;;;5041280;28;21281;-89
2022/06/30 02:49:47;;;;;;;8.03;7.07;;;25.20;56.60;;;;;;5041730;28;20445;-90
2022/06/30 02:52:14;;;;;;;9.10;7.27;;;25.10;56.60;;;;;;5058634;28;20449;-91
2022/06/30 02:54:41;;;;;;;10.43;6.93;;;25.10;56.40;;;;;;5055800;28;20468;-91
2022/06/30 02:57:08;;;;;;;8.40;7.13;;;25.10;56.10;;;;;;5048093;28;20564;-90
2022/06/30 02:59:35;;;;;;;12.17;9.20;;;25.20;56.30;;;;;;5048708;28;20437;-91
2022/06/30 03:02:02;;;;;;;9.90;8.60;;;25.10;56.40;;;;;;5058044;28;20484;-90
2022/06/30 03:04:29;;;;;;;12.03;8.10;;;25.10;56.70;;;;;;5020022;28;20558;-90
2022/06/30 03:06:57;;;;;;;8.83;7.93;;;25.10;57.50;;;;;;5061346;28;20460;-90
2022/06/30 03:09:24;;;;;;;8.00;6.77;;;25.00;57.90;;;;;;5060135;28;20453;-91
2022/06/30 03:11:52;;;;;;;10.13;8.70;;;25.10;57.50;;;;;;5043960;28;20445;-90
2022/06/30 03:14:19;;;;;;;8.63;7.50;;;25.10;58.10;;;;;;5052210;28;20490;-91
2022/06/30 03:16:46;;;;;;;9.17;7.30;;;25.20;57.80;;;;;;5032425;28;20461;-91
2022/06/30 03:19:13;;;;;;;10.27;8.00;;;25.20;57.70;;;;;;5059000;28;20437;-90
2022/06/30 03:21:40;;;;;;;8.23;7.43;;;25.20;58.00;;;;;;5046922;28;20455;-90
2022/06/30 03:24:09;;;;;;;10.53;7.50;;;25.20;58.00;;;;;;5044157;28;20476;-90
2022/06/30 03:26:37;;;;;;;10.63;7.43;;;25.20;58.10;;;;;;5056774;28;20445;-90
2022/06/30 03:29:04;;;;;;;8.93;8.03;;;25.20;58.20;;;;;;5055115;28;20450;-90
2022/06/30 03:31:31;;;;;;;8.53;7.10;;;25.20;58.30;;;;;;5048768;28;20479;-92
2022/06/30 03:33:59;;;;;;;11.10;8.10;;;25.20;58.40;;;;;;5047548;28;20477;-91
2022/06/30 03:36:26;;;;;;;11.00;7.53;;;25.00;58.90;;;;;;5058401;28;20474;-91
2022/06/30 03:38:53;;;;;;;12.77;9.00;;;24.90;59.10;;;;;;5056278;28;20463;-90
2022/06/30 03:41:21;;;;;;;11.90;9.07;;;25.00;59.20;;;;;;5076851;28;20468;-90
2022/06/30 03:43:49;;;;;;;15.40;9.40;;;25.00;59.20;;;;;;5069889;28;20460;-91
2022/06/30 03:46:16;;;;;;;13.53;10.20;;;25.00;59.10;;;;;;5052017;28;20441;-90
2022/06/30 03:48:43;;;;;;;17.80;10.60;;;25.00;59.10;;;;;;5053408;28;20448;-91
2022/06/30 03:51:11;;;;;;;15.60;9.27;;;25.10;59.00;;;;;;5051612;28;21074;-90
2022/06/30 03:53:39;;;;;;;17.53;9.80;;;25.10;58.90;;;;;;5045222;28;20465;-91
2022/06/30 03:56:06;;;;;;;13.17;9.70;;;25.10;58.90;;;;;;5037179;28;20479;-90
2022/06/30 03:58:35;;;;;;;13.97;9.50;;;25.20;59.10;;;;;;5056025;28;20448;-89
2022/06/30 04:01:02;;;;;;;14.60;10.47;;;25.20;58.90;;;;;;5053876;28;20488;-90
2022/06/30 04:03:29;;;;;;;13.30;9.47;;;25.20;58.90;;;;;;5037661;28;20465;-92
2022/06/30 04:05:56;;;;;;;16.87;10.40;;;25.30;59.00;;;;;;5069023;28;20453;-90
2022/06/30 04:08:23;;;;;;;21.13;11.97;;;25.20;58.90;;;;;;5055796;28;20528;-90
2022/06/30 04:10:51;;;;;;;17.40;11.63;;;25.20;59.00;;;;;;5026468;28;20463;-90
2022/06/30 04:13:18;;;;;;;16.67;11.73;;;25.30;58.80;;;;;;5056395;28;20474;-90
2022/06/30 04:15:47;;;;;;;16.97;11.70;;;25.20;59.00;;;;;;5055714;28;20472;-91
2022/06/30 04:18:14;;;;;;;17.00;11.10;;;25.20;59.60;;;;;;5068738;28;20445;-90
2022/06/30 04:20:41;;;;;;;19.70;11.63;;;25.20;59.20;;;;;;5055938;28;20440;-90
2022/06/30 04:23:08;;;;;;;21.23;12.00;;;25.00;59.80;;;;;;5053374;28;20461;-90
2022/06/30 04:25:35;;;;;;;19.43;11.77;;;25.00;59.90;;;;;;5035220;28;20445;-89
2022/06/30 04:28:02;;;;;;;19.77;11.90;;;25.00;59.80;;;;;;5035458;28;20528;-89
2022/06/30 04:33:16;;;;;;;24.97;12.30;;;25.20;59.50;;;;;;5055620;28;21014;-90
2022/06/30 04:35:43;;;;;;;17.33;12.07;;;25.20;59.40;;;;;;5027286;28;20519;-89
2022/06/30 04:38:10;;;;;;;19.60;12.27;;;25.20;59.60;;;;;;5056278;28;20535;-90
2022/06/30 04:43:21;;;;;;;19.77;12.90;;;25.10;59.70;;;;;;5056194;28;20495;-90
2022/06/30 04:45:48;;;;;;;25.23;13.47;;;25.10;59.80;;;;;;5033251;28;20445;-90
2022/06/30 04:48:16;;;;;;;24.83;13.63;;;24.90;60.40;;;;;;5043438;28;20460;-91
2022/06/30 04:50:43;;;;;;;22.60;13.43;;;24.90;60.70;;;;;;5054717;28;20452;-89
2022/06/30 04:53:10;;;;;;;19.90;12.57;;;25.00;60.70;;;;;;5028391;28;20633;-89
2022/06/30 04:55:39;;;;;;;20.83;14.37;;;25.10;60.80;;;;;;5051397;28;20445;-91
2022/06/30 04:58:06;;;;;;;26.37;14.27;;;25.00;60.70;;;;;;5044828;28;20895;-90
2022/06/30 05:00:33;;;;;;;18.83;12.00;;;25.10;60.60;;;;;;5071537;28;20445;-90
2022/06/30 05:03:00;;;;;;;24.70;14.37;;;25.00;60.80;;;;;;5073989;28;20491;-90
2022/06/30 05:05:28;;;;;;;24.83;14.03;;;25.10;60.90;;;;;;5042714;28;20450;-90
2022/06/30 05:07:55;;;;;;;29.97;13.27;;;25.20;60.60;;;;;;5057395;28;20532;-89
2022/06/30 05:10:22;;;;;;;19.57;12.87;;;25.30;60.30;;;;;;5055930;28;20455;-91
2022/06/30 05:12:49;;;;;;;21.43;13.37;;;25.30;60.30;;;;;;5073187;28;21022;-90
2022/06/30 05:15:16;;;;;;;24.77;14.50;;;25.20;60.30;;;;;;5071750;28;21184;-91
2022/06/30 05:17:43;;;;;;;20.10;13.60;;;25.30;60.40;;;;;;5033194;28;20469;-91
2022/06/30 05:20:11;;;;;;;22.93;13.27;;;25.30;60.20;;;;;;5029394;28;20480;-90
2022/06/30 05:22:40;;;;;;;26.27;13.80;;;25.30;60.00;;;;;;5057832;28;20456;-90
2022/06/30 05:27:52;;;;;;;16.60;11.47;;;25.30;60.20;;;;;;5025879;28;20453;-90
2022/06/30 05:30:19;;;;;;;19.73;13.13;;;25.20;60.50;;;;;;5025003;28;20477;-90
2022/06/30 05:32:47;;;;;;;22.67;12.80;;;25.30;60.60;;;;;;5046710;28;21228;-88
2022/06/30 05:35:14;;;;;;;24.50;15.33;;;25.30;60.30;;;;;;5059788;28;20452;-89
2022/06/30 05:37:42;;;;;;;24.60;14.57;;;25.00;61.00;;;;;;5053283;28;20475;-89
2022/06/30 05:40:10;;;;;;;26.17;15.93;;;24.80;61.90;;;;;;5048056;28;20457;-90
2022/06/30 05:42:37;;;;;;;25.70;14.30;;;24.90;61.80;;;;;;5038980;28;21891;-90
2022/06/30 05:45:04;;;;;;;20.50;13.67;;;24.90;62.00;;;;;;5055633;28;20472;-88
2022/06/30 05:47:31;;;;;;;19.00;12.17;;;25.00;61.80;;;;;;5048048;28;20527;-91
2022/06/30 05:49:58;;;;;;;20.63;13.60;;;25.00;62.00;;;;;;5061113;28;20440;-90
2022/06/30 05:52:25;;;;;;;20.00;13.70;;;25.20;61.50;;;;;;5054915;28;20449;-90
2022/06/30 05:54:56;;;;;;;23.10;12.57;;;25.30;60.80;;;;;;5035612;28;21016;-91
2022/06/30 05:57:23;;;;;;;20.63;13.07;;;25.50;60.50;;;;;;5043187;28;21206;-90
2022/06/30 05:59:50;;;;;;;19.50;13.50;;;25.60;60.00;;;;;;5039722;28;20465;-90
2022/06/30 06:02:17;;;;;;;29.67;14.57;;;25.60;60.00;;;;;;5040934;28;20471;-90
2022/06/30 06:04:43;;;;;;;23.27;13.60;;;25.40;60.70;;;;;;5022025;28;20460;-89
2022/06/30 06:07:10;;;;;;;19.53;13.70;;;25.30;61.20;;;;;;5048926;28;20441;-91
2022/06/30 06:09:37;;;;;;;18.43;12.40;;;25.30;61.50;;;;;;5036706;28;20460;-91
2022/06/30 06:12:07;;;;;;;19.60;12.40;;;25.40;61.30;;;;;;5055287;28;20451;-92
2022/06/30 06:14:33;;;;;;;23.03;14.33;;;25.50;61.00;;;;;;5023701;28;20856;-92
2022/06/30 06:17:00;;;;;;;23.27;13.93;;;25.50;60.70;;;;;;5035078;28;20476;-92
2022/06/30 06:19:27;;;;;;;23.50;13.93;;;25.50;60.80;;;;;;5039390;28;20800;-92
2022/06/30 06:21:54;;;;;;;18.90;12.67;;;25.40;61.00;;;;;;5051957;28;20952;-91
2022/06/30 06:24:21;;;;;;;21.20;14.33;;;25.40;61.20;;;;;;5038589;28;20565;-92
2022/06/30 06:26:48;;;;;;;22.67;13.20;;;25.40;61.40;;;;;;5054503;28;20459;-92
2022/06/30 06:29:16;;;;;;;21.77;14.13;;;25.30;61.70;;;;;;5040192;28;20448;-90
2022/06/30 06:31:43;;;;;;;22.30;15.63;;;25.50;61.40;;;;;;5050785;28;20450;-91
2022/06/30 06:34:11;;;;;;;23.13;13.80;;;25.70;60.80;;;;;;5042885;28;20479;-92
2022/06/30 06:36:38;;;;;;;21.97;14.73;;;25.70;60.40;;;;;;5037806;28;20480;-91
2022/06/30 06:39:05;;;;;;;23.10;14.10;;;25.90;60.70;;;;;;5053235;28;20459;-91
2022/06/30 06:41:32;;;;;;;25.87;15.87;;;25.90;59.90;;;;;;5037195;28;20475;-92
2022/06/30 06:43:59;;;;;;;21.80;14.80;;;26.00;60.00;;;;;;5051766;28;20848;-92
2022/06/30 06:46:28;;;;;;;24.87;14.77;;;26.10;59.90;;;;;;5042112;28;20441;-93
2022/06/30 06:48:56;;;;;;;20.70;13.47;;;26.10;59.70;;;;;;5055698;28;20476;-94
2022/06/30 06:51:23;;;;;;;20.00;13.07;;;26.00;59.90;;;;;;5028701;28;20456;-93
2022/06/30 06:53:50;;;;;;;22.07;12.90;;;25.80;60.80;;;;;;5021521;28;20487;-91
2022/06/30 06:56:17;;;;;;;20.60;13.70;;;25.70;61.10;;;;;;5050199;28;20449;-92
2022/06/30 06:58:44;;;;;;;22.83;15.23;;;25.80;61.20;;;;;;5027882;28;20544;-93
2022/06/30 07:01:11;;;;;;;28.00;13.57;;;26.00;60.80;;;;;;5054865;28;20999;-92
2022/06/30 07:03:40;;;;;;;21.30;13.10;;;26.10;60.50;;;;;;5039515;28;20465;-94
2022/06/30 07:06:08;;;;;;;21.10;14.30;;;26.30;59.90;;;;;;5037881;28;20448;-92
2022/06/30 07:08:35;;;;;;;16.40;12.30;;;26.50;60.00;;;;;;5042060;28;20446;-93
2022/06/30 07:11:03;;;;;;;22.53;13.63;;;26.50;60.00;;;;;;5041950;28;20453;-92
2022/06/30 07:13:31;;;;;;;18.13;12.70;;;26.40;60.10;;;;;;5036243;28;21190;-92
2022/06/30 07:16:00;;;;;;;19.13;13.23;;;26.40;60.50;;;;;;5035873;28;20445;-91
2022/06/30 07:18:28;;;;;;;19.77;13.30;;;26.50;60.00;;;;;;5032560;28;20537;-92
2022/06/30 07:20:57;;;;;;;16.17;12.23;;;26.60;59.80;;;;;;5050058;28;20445;-91
2022/06/30 07:23:23;;;;;;;19.13;12.80;;;26.90;59.40;;;;;;5053509;28;20463;-90
2022/06/30 07:25:50;;;;;;;17.20;12.67;;;27.00;59.20;;;;;;5049533;28;20475;-93
2022/06/30 07:28:18;;;;;;;17.23;13.90;;;27.10;58.90;;;;;;5041549;28;20441;-92
2022/06/30 07:30:45;;;;;;;15.40;11.63;;;27.30;58.30;;;;;;5042886;28;20463;-92
2022/06/30 07:33:12;;;;;;;15.40;11.93;;;27.50;58.00;;;;;;5036308;28;20480;-92
2022/06/30 07:35:39;;;;;;;17.60;12.00;;;27.40;58.00;;;;;;5042397;28;20479;-91
2022/06/30 07:38:07;;;;;;;16.53;11.47;;;27.40;58.50;;;;;;5050225;28;20465;-92
2022/06/30 07:40:34;;;;;;;15.67;12.30;;;27.40;57.90;;;;;;5048503;28;20460;-91
2022/06/30 07:43:01;;;;;;;16.60;11.80;;;27.40;58.40;;;;;;5049371;28;20840;-91
2022/06/30 07:45:28;;;;;;;15.60;11.83;;;27.70;57.80;;;;;;5040251;28;20812;-92
2022/06/30 07:47:55;;;;;;;16.93;11.00;;;27.80;57.20;;;;;;5047850;28;20623;-90
2022/06/30 07:50:22;;;;;;;13.30;11.10;;;27.90;57.20;;;;;;5050251;28;20460;-92
2022/06/30 07:52:49;;;;;;;11.80;10.60;;;28.10;57.00;;;;;;5048895;28;20436;-90
2022/06/30 07:55:17;;;;;;;16.50;12.23;;;28.10;56.90;;;;;;5047515;28;20456;-92
2022/06/30 07:57:46;;;;;;;17.90;12.07;;;28.00;56.80;;;;;;5049314;28;20475;-91
2022/06/30 08:00:14;;;;;;;13.80;11.00;;;28.10;56.90;;;;;;5040050;28;20536;-91
2022/06/30 08:02:42;;;;;;;13.23;10.60;;;28.20;57.00;;;;;;5038799;28;21062;-91
2022/06/30 08:05:09;;;;;;;15.40;11.10;;;28.60;56.50;;;;;;5032791;28;20544;-91
2022/06/30 08:07:37;;;;;;;13.40;10.33;;;28.70;56.60;;;;;;5045390;28;20460;-92
2022/06/30 08:10:06;;;;;;;10.77;9.60;;;28.80;55.40;;;;;;5025947;28;20446;-91
2022/06/30 08:12:34;;;;;;;11.33;9.57;;;28.90;55.70;;;;;;5047897;28;20559;-91
2022/06/30 08:15:01;;;;;;;13.27;11.10;;;29.00;55.20;;;;;;5045751;28;20462;-91
2022/06/30 08:17:31;;;;;;;11.03;9.10;;;29.10;54.70;;;;;;5038954;28;20591;-92
2022/06/30 08:19:58;;;;;;;13.57;10.80;;;29.30;54.70;;;;;;5049300;28;20505;-91
2022/06/30 08:22:25;;;;;;;12.00;10.00;;;29.40;54.30;;;;;;5028537;28;21092;-92
2022/06/30 08:24:54;;;;;;;10.80;8.73;;;29.60;54.80;;;;;;5019648;28;20495;-90
2022/06/30 08:27:21;;;;;;;11.97;9.47;;;29.70;53.50;;;;;;5046187;28;20452;-91
2022/06/30 08:29:50;;;;;;;13.47;9.63;;;29.80;53.40;;;;;;5043241;28;20521;-91
2022/06/30 08:32:17;;;;;;;10.50;9.27;;;29.70;53.30;;;;;;5036420;28;20445;-89
2022/06/30 08:34:46;;;;;;;10.13;9.07;;;29.80;53.70;;;;;;5048257;28;20462;-90
2022/06/30 08:37:13;;;;;;;11.93;9.40;;;30.10;53.20;;;;;;5049192;28;20571;-91
2022/06/30 08:42:26;;;;;;;11.63;9.07;;;30.30;52.20;;;;;;5046962;28;20473;-91
2022/06/30 08:47:40;;;;;;;9.23;8.23;;;30.60;51.10;;;;;;5048491;28;20959;-91
2022/06/30 08:50:09;;;;;;;10.30;8.37;;;30.90;50.60;;;;;;5049951;28;20453;-90
2022/06/30 08:52:41;;;;;;;8.80;7.90;;;31.00;51.20;;;;;;5054722;28;20487;-91
2022/06/30 08:55:10;;;;;;;9.30;8.00;;;31.20;50.10;;;;;;5032193;28;20449;-90
2022/06/30 08:57:39;;;;;;;8.93;8.10;;;31.50;49.00;;;;;;5067307;28;20468;-90
2022/06/30 09:00:09;;;;;;;7.43;6.73;;;31.70;48.90;;;;;;5042720;28;20450;-91
2022/06/30 09:02:36;;;;;;;9.70;7.90;;;31.70;47.70;;;;;;5026677;28;20460;-89
2022/06/30 09:05:04;;;;;;;8.40;7.60;;;31.70;47.70;;;;;;5043402;28;20476;-91
2022/06/30 09:07:31;;;;;;;7.50;6.73;;;31.90;46.90;;;;;;5046331;28;20445;-90
2022/06/30 09:09:58;;;;;;;9.13;7.97;;;32.00;47.00;;;;;;5046611;28;20456;-91
2022/06/30 09:12:26;;;;;;;8.43;6.57;;;31.80;46.30;;;;;;5040484;28;20449;-90
2022/06/30 09:14:55;;;;;;;9.90;7.83;;;31.70;47.30;;;;;;5044985;28;20473;-90
2022/06/30 09:17:25;;;;;;;8.70;7.10;;;31.90;46.60;;;;;;5048512;28;20473;-91
2022/06/30 09:19:54;;;;;;;6.83;6.23;;;32.10;46.10;;;;;;5042454;28;20468;-91
2022/06/30 09:22:23;;;;;;;6.83;6.30;;;32.40;45.00;;;;;;5051292;28;20441;-91
2022/06/30 09:24:59;;;;;;;7.37;6.67;;;32.50;43.80;;;;;;5055158;28;20529;-91
2022/06/30 09:27:27;;;;;;;7.57;6.10;;;32.50;43.20;;;;;;5053867;28;20513;-92
2022/06/30 09:29:56;;;;;;;6.27;5.77;;;32.70;43.30;;;;;;5055229;28;20447;-91
2022/06/30 09:32:24;;;;;;;6.33;5.83;;;32.90;42.10;;;;;;5036883;28;20959;-91
2022/06/30 09:34:53;;;;;;;5.53;5.13;;;32.80;41.00;;;;;;5051066;28;21882;-92
2022/06/30 09:37:22;;;;;;;13.57;6.20;;;33.00;41.00;;;;;;5037899;28;20476;-91
2022/06/30 09:39:51;;;;;;;5.90;5.30;;;33.20;41.20;;;;;;5058542;28;20553;-92
2022/06/30 09:42:37;;;;;;;5.27;4.80;;;33.00;39.30;;;;;;5058776;28;20460;-90
2022/06/30 09:45:06;;;;;;;5.77;4.60;;;32.90;39.50;;;;;;5032308;28;20477;-91
2022/06/30 09:47:34;;;;;;;5.80;5.20;;;33.00;37.50;;;;;;5053082;28;20528;-90
2022/06/30 09:50:03;;;;;;;5.03;4.50;;;32.90;37.00;;;;;;5065075;28;20460;-89
2022/06/30 09:52:31;;;;;;;5.40;5.00;;;33.00;37.20;;;;;;5030676;28;20449;-90
2022/06/30 09:55:00;;;;;;;4.90;4.40;;;33.10;37.30;;;;;;5052925;28;20874;-90
2022/06/30 09:57:29;;;;;;;4.90;4.33;;;33.00;37.60;;;;;;5050839;28;21261;-91
2022/06/30 10:00:01;;;;;;;4.20;3.80;;;32.90;35.60;;;;;;5049324;28;20789;-91
2022/06/30 10:02:31;;;;;;;3.50;3.20;;;33.10;35.70;;;;;;5052183;28;20457;-91
2022/06/30 10:05:00;;;;;;;3.80;3.50;;;33.50;35.00;;;;;;5057688;28;20480;-90
2022/06/30 10:07:28;;;;;;;6.17;3.60;;;33.30;33.40;;;;;;5050021;28;20449;-91
2022/06/30 10:09:55;;;;;;;5.80;4.33;;;33.30;35.90;;;;;;5050726;28;20457;-90
2022/06/30 10:12:24;;;;;;;3.83;3.53;;;33.20;32.80;;;;;;5048839;28;20514;-89
2022/06/30 10:14:53;;;;;;;4.30;3.90;;;33.00;32.30;;;;;;5047361;28;21126;-91
2022/06/30 10:17:23;;;;;;;4.13;3.53;;;33.00;35.20;;;;;;5031479;28;20441;-91
2022/06/30 10:19:51;;;;;;;4.10;3.53;;;33.60;34.30;;;;;;5058356;28;20810;-91
2022/06/30 10:22:22;;;;;;;5.10;4.50;;;33.60;32.50;;;;;;5065282;28;21037;-90
2022/06/30 10:24:51;;;;;;;4.27;3.97;;;33.80;32.30;;;;;;5049819;28;21558;-90
2022/06/30 10:27:19;;;;;;;3.77;3.47;;;34.00;32.50;;;;;;5040640;28;20452;-91
2022/06/30 10:29:50;;;;;;;3.73;3.43;;;33.90;31.20;;;;;;5049231;28;20543;-89
2022/06/30 10:32:35;;;;;;;6.07;3.70;;;34.40;33.70;;;;;;5049236;28;20455;-89
2022/06/30 10:35:12;;;;;;;3.90;3.67;;;34.80;31.60;;;;;;5046884;28;20498;-90
2022/06/30 10:37:46;;;;;;;5.60;3.83;;;34.70;31.40;;;;;;5064845;28;20468;-90
2022/06/30 10:40:21;;;;;;;4.03;3.73;;;34.70;31.20;;;;;;5048837;28;21134;-91
2022/06/30 10:42:50;;;;;;;3.13;2.93;;;35.00;31.20;;;;;;5047964;28;20498;-91
2022/06/30 10:46:00;;;;;;;4.10;3.80;;;35.10;30.30;;;;;;5033926;28;20460;-89
2022/06/30 10:48:29;;;;;;;3.60;3.30;;;35.10;31.20;;;;;;4963082;28;20581;-90
2022/06/30 10:50:57;;;;;;;3.47;3.20;;;35.70;30.00;;;;;;4971625;28;20459;-90
2022/06/30 10:53:54;;;;;;;3.43;3.17;;;36.00;29.80;;;;;;5013225;28;20471;-91
2022/06/30 10:56:22;;;;;;;3.63;3.33;;;36.10;28.50;;;;;;5054576;28;20509;-90
2022/06/30 10:59:11;;;;;;;3.27;2.97;;;36.20;28.90;;;;;;5056484;28;20483;-89
2022/06/30 11:01:40;;;;;;;3.30;3.10;;;36.40;28.10;;;;;;5047661;28;20468;-90
2022/06/30 11:04:11;;;;;;;3.20;3.00;;;36.50;25.90;;;;;;5036960;28;21046;-90
2022/06/30 11:06:58;;;;;;;4.90;3.23;;;36.30;26.40;;;;;;5049423;28;20916;-89
2022/06/30 11:10:07;;;;;;;3.90;3.53;;;36.00;28.90;;;;;;5045240;28;20531;-90
2022/06/30 11:12:59;;;;;;;3.50;3.30;;;36.00;27.70;;;;;;5038022;28;20531;-89
2022/06/30 11:15:50;;;;;;;3.80;3.40;;;36.00;27.90;;;;;;5045785;28;20438;-90
2022/06/30 11:18:19;;;;;;;4.37;3.50;;;36.20;28.50;;;;;;5062464;28;20468;-89
2022/06/30 11:20:46;;;;;;;3.67;3.30;;;36.90;28.30;;;;;;5061613;28;20446;-89
2022/06/30 11:23:13;;;;;;;5.93;3.37;;;37.10;27.70;;;;;;5042247;28;20469;-90
2022/06/30 11:28:31;;;;;;;3.43;2.60;;;37.20;25.10;;;;;;5046002;28;20810;-90
2022/06/30 11:30:58;;;;;;;4.13;2.93;;;36.70;26.30;;;;;;5063462;28;20454;-89
2022/06/30 11:33:25;;;;;;;2.90;2.70;;;36.40;26.20;;;;;;5048889;28;20487;-89
2022/06/30 11:36:02;;;;;;;2.63;2.50;;;36.40;26.20;;;;;;5049160;28;20449;-90
2022/06/30 11:38:30;;;;;;;4.17;3.07;;;36.60;26.50;;;;;;5047218;28;20475;-89
2022/06/30 11:41:54;;;;;;;3.83;2.53;;;36.70;26.30;;;;;;5047426;28;20530;-89
2022/06/30 11:43:51;;;;;;;3.10;2.90;;;36.30;25.70;;;;;;5046892;28;20751;-90
2022/06/30 11:46:18;;;;;;;2.90;2.70;;;35.80;27.30;;;;;;5042610;28;20460;-89
2022/06/30 11:48:45;;;;;;;3.90;3.50;;;35.90;28.10;;;;;;5048715;28;20438;-90
2022/06/30 11:51:12;;;;;;;5.97;3.50;;;35.80;27.40;;;;;;5046554;28;20879;-90
2022/06/30 11:53:41;;;;;;;3.40;3.20;;;36.00;28.20;;;;;;5053984;28;20480;-90
2022/06/30 11:56:08;;;;;;;6.47;3.30;;;36.20;27.30;;;;;;5037665;28;20453;-90
2022/06/30 11:58:34;;;;;;;6.40;3.03;;;36.40;27.70;;;;;;5049484;28;20991;-90
2022/06/30 12:01:14;;;;;;;4.00;3.13;;;36.80;27.40;;;;;;5042045;28;20473;-89
2022/06/30 12:03:43;;;;;;;5.37;3.70;;;36.80;26.80;;;;;;5041520;28;20504;-89
2022/06/30 12:06:11;;;;;;;4.50;4.10;;;37.00;26.30;;;;;;5032140;28;20464;-91
2022/06/30 12:08:39;;;;;;;3.47;3.17;;;37.10;26.70;;;;;;5033083;28;20444;-90
2022/06/30 12:11:07;;;;;;;8.00;3.50;;;37.20;26.90;;;;;;5040418;28;20537;-91
2022/06/30 12:13:34;;;;;;;4.13;3.73;;;37.10;26.10;;;;;;5051678;28;20472;-91
2022/06/30 12:16:05;;;;;;;6.53;3.37;;;36.70;26.40;;;;;;5043135;28;20468;-89
2022/06/30 12:18:34;;;;;;;3.40;3.20;;;36.60;26.60;;;;;;5059920;28;21318;-91
2022/06/30 12:21:01;;;;;;;3.10;2.90;;;36.50;27.20;;;;;;5047253;28;20855;-89
2022/06/30 12:23:28;;;;;;;2.77;2.67;;;36.50;25.90;;;;;;5043142;28;21310;-90
2022/06/30 12:25:56;;;;;;;3.87;3.40;;;36.60;26.50;;;;;;5031240;28;20444;-90
2022/06/30 12:28:25;;;;;;;3.20;3.00;;;36.70;25.10;;;;;;5025557;28;20445;-91
2022/06/30 12:30:53;;;;;;;3.20;2.93;;;36.70;24.90;;;;;;5060279;28;20592;-91
2022/06/30 12:33:22;;;;;;;3.67;2.70;;;36.70;25.10;;;;;;5041728;28;22258;-90
2022/06/30 12:35:50;;;;;;;3.03;2.80;;;36.90;25.40;;;;;;5028864;28;20528;-90
2022/06/30 12:38:20;;;;;;;3.40;3.20;;;37.20;24.90;;;;;;5043730;28;20477;-89
2022/06/30 12:40:48;;;;;;;5.33;3.30;;;37.30;24.60;;;;;;5043742;28;20460;-91
2022/06/30 12:43:16;;;;;;;3.90;3.30;;;37.70;24.80;;;;;;5042481;28;20555;-91
2022/06/30 12:45:46;;;;;;;3.00;2.80;;;37.70;24.40;;;;;;5028093;28;20541;-90
2022/06/30 12:48:15;;;;;;;3.47;3.17;;;37.40;23.60;;;;;;5033711;28;21015;-90
2022/06/30 12:50:44;;;;;;;3.20;3.00;;;37.00;24.80;;;;;;5034470;28;20448;-90
2022/06/30 12:53:24;;;;;;;4.20;3.47;;;37.00;25.40;;;;;;5043954;28;21338;-90
2022/06/30 12:55:59;;;;;;;4.40;2.97;;;37.20;25.20;;;;;;5044086;28;20453;-91
2022/06/30 12:58:26;;;;;;;4.93;3.60;;;37.10;24.70;;;;;;5044438;28;20472;-92
2022/06/30 13:00:57;;;;;;;3.80;3.03;;;37.30;25.90;;;;;;5043460;28;20456;-91
2022/06/30 13:03:25;;;;;;;2.93;2.73;;;37.70;24.70;;;;;;5058263;28;21055;-91
2022/06/30 13:05:52;;;;;;;3.40;3.20;;;37.90;25.00;;;;;;5029156;28;20468;-91